Time;durP1;ratioP1;P1;durP2;ratioP2;P2;SDS_P1;SDS_P2;PMS_P1;PMS_P2;Temp;Humidity;BMP_temperature;BMP_pressure;BME280_temperature;BME280_humidity;BME280_pressure;Samples;Min_cycle;Max_cycle;Signal;HPM_P1;HPM_P2
2023/06/01 00:01:01;;;;;;;11.80;6.87;;;12.00;99.90;;;;;;5122122;28;20728;-79
2023/06/01 00:03:29;;;;;;;14.73;6.90;;;12.10;99.90;;;;;;5121622;28;20231;-76
2023/06/01 00:05:56;;;;;;;19.83;7.43;;;11.80;99.90;;;;;;5120567;28;20208;-76
2023/06/01 00:08:24;;;;;;;12.97;6.83;;;11.90;99.90;;;;;;5121311;28;20617;-81
2023/06/01 00:10:51;;;;;;;15.03;7.70;;;11.70;99.90;;;;;;5120862;28;20259;-78
2023/06/01 00:13:18;;;;;;;13.87;7.97;;;11.70;99.90;;;;;;5120363;28;20561;-77
2023/06/01 00:15:45;;;;;;;14.50;6.87;;;11.80;99.90;;;;;;5121972;28;20209;-78
2023/06/01 00:18:15;;;;;;;17.93;7.50;;;11.60;99.90;;;;;;5122972;28;20216;-78
2023/06/01 00:20:42;;;;;;;15.10;7.60;;;11.50;99.90;;;;;;5121828;28;20224;-79
2023/06/01 00:23:10;;;;;;;13.90;6.73;;;11.60;99.90;;;;;;5120624;28;20225;-77
2023/06/01 00:25:38;;;;;;;17.23;6.97;;;11.60;99.90;;;;;;5121135;28;20204;-76
2023/06/01 00:28:05;;;;;;;13.97;6.97;;;11.30;99.90;;;;;;5120910;28;20669;-75
2023/06/01 00:30:31;;;;;;;14.23;7.17;;;11.50;99.90;;;;;;5121449;28;20223;-79
2023/06/01 00:32:58;;;;;;;12.53;6.30;;;11.50;99.90;;;;;;5121251;28;20689;-78
2023/06/01 00:35:25;;;;;;;14.33;6.87;;;11.50;99.90;;;;;;5121879;28;20213;-75
2023/06/01 00:37:52;;;;;;;12.63;6.60;;;11.60;99.90;;;;;;5122553;28;20287;-79
2023/06/01 00:40:19;;;;;;;15.97;7.00;;;11.40;99.90;;;;;;5122605;28;20197;-78
2023/06/01 00:42:47;;;;;;;17.30;6.93;;;11.30;99.90;;;;;;5121997;28;20567;-77
2023/06/01 00:45:14;;;;;;;12.30;7.00;;;11.30;99.90;;;;;;5122127;28;20583;-77
2023/06/01 00:47:42;;;;;;;14.40;6.57;;;11.60;99.90;;;;;;5122063;28;20252;-79
2023/06/01 00:50:11;;;;;;;13.00;6.20;;;11.70;99.90;;;;;;5120884;28;20243;-79
2023/06/01 00:52:39;;;;;;;16.27;7.47;;;11.60;99.90;;;;;;5120836;28;20233;-79
2023/06/01 00:55:07;;;;;;;22.13;6.57;;;11.40;99.90;;;;;;5121946;28;20205;-77
2023/06/01 00:57:35;;;;;;;14.60;6.87;;;11.50;99.90;;;;;;5121171;28;20266;-79
2023/06/01 01:00:11;;;;;;;12.87;6.50;;;11.60;99.90;;;;;;5121588;28;20673;-78
2023/06/01 01:02:39;;;;;;;15.17;6.80;;;11.40;99.90;;;;;;5120720;28;20232;-76
2023/06/01 01:05:09;;;;;;;14.30;6.60;;;11.30;99.90;;;;;;5120877;28;20258;-78
2023/06/01 01:07:43;;;;;;;13.50;6.10;;;11.30;99.90;;;;;;5121120;28;20227;-79
2023/06/01 01:10:19;;;;;;;11.10;6.30;;;11.40;99.90;;;;;;5121907;28;20204;-79
2023/06/01 01:12:52;;;;;;;16.67;6.87;;;11.20;99.90;;;;;;5120870;28;20225;-79
2023/06/01 01:15:25;;;;;;;14.47;6.60;;;11.30;99.90;;;;;;5121270;28;20256;-79
2023/06/01 01:18:01;;;;;;;14.87;6.37;;;11.30;99.90;;;;;;5121534;28;20201;-79
2023/06/01 01:20:30;;;;;;;15.57;6.30;;;11.10;99.90;;;;;;5121751;28;20652;-76
2023/06/01 01:23:24;;;;;;;11.20;6.27;;;11.00;99.90;;;;;;5120782;28;20223;-76
2023/06/01 01:26:15;;;;;;;13.00;6.37;;;11.00;99.90;;;;;;5121371;28;20205;-79
2023/06/01 01:28:47;;;;;;;13.00;6.07;;;10.90;99.90;;;;;;5121662;28;20181;-76
2023/06/01 01:31:17;;;;;;;12.27;5.67;;;11.10;99.90;;;;;;5120909;28;20264;-78
2023/06/01 01:33:46;;;;;;;13.87;6.40;;;11.30;99.90;;;;;;5121363;28;20225;-78
2023/06/01 01:36:13;;;;;;;14.63;6.27;;;11.20;99.90;;;;;;5122205;28;20230;-79
2023/06/01 01:38:40;;;;;;;11.27;5.80;;;11.10;99.90;;;;;;5121230;28;20269;-77
2023/06/01 01:41:07;;;;;;;12.90;6.33;;;11.10;99.90;;;;;;5120930;28;20201;-79
2023/06/01 01:43:34;;;;;;;12.40;5.37;;;11.20;99.90;;;;;;5120522;28;20220;-77
2023/06/01 01:46:14;;;;;;;11.77;5.73;;;11.20;99.90;;;;;;5121802;28;20610;-79
2023/06/01 01:48:52;;;;;;;12.57;5.93;;;11.20;99.90;;;;;;5120751;28;20204;-79
2023/06/01 01:51:24;;;;;;;11.13;5.63;;;11.20;99.90;;;;;;5120157;28;20216;-78
2023/06/01 01:53:53;;;;;;;12.67;6.63;;;11.10;99.90;;;;;;5119769;28;20250;-79
2023/06/01 01:56:21;;;;;;;13.30;6.77;;;11.10;99.90;;;;;;5121808;28;20211;-79
2023/06/01 01:58:49;;;;;;;13.17;7.27;;;11.10;99.90;;;;;;5120148;28;20215;-78
2023/06/01 02:01:19;;;;;;;13.50;6.50;;;11.30;99.90;;;;;;5121678;28;20201;-79
2023/06/01 02:03:46;;;;;;;16.30;7.13;;;11.10;99.90;;;;;;5120403;28;20224;-78
2023/06/01 02:06:13;;;;;;;14.97;6.83;;;11.20;99.90;;;;;;5120567;28;20591;-77
2023/06/01 02:08:39;;;;;;;13.70;6.53;;;11.30;99.90;;;;;;5121855;28;20200;-76
2023/06/01 02:11:06;;;;;;;14.30;6.80;;;11.40;99.90;;;;;;5119646;28;20217;-77
2023/06/01 02:13:33;;;;;;;13.30;7.20;;;11.30;99.90;;;;;;5119419;28;20283;-77
2023/06/01 02:16:00;;;;;;;15.30;6.63;;;11.30;99.90;;;;;;5120940;28;20292;-78
2023/06/01 02:18:29;;;;;;;13.33;7.20;;;11.20;99.90;;;;;;5119884;28;20201;-78
2023/06/01 02:20:56;;;;;;;14.00;7.40;;;11.10;99.90;;;;;;5118456;28;20201;-76
2023/06/01 02:23:23;;;;;;;12.93;7.07;;;11.10;99.90;;;;;;5117565;28;20542;-78
2023/06/01 02:25:51;;;;;;;15.60;7.60;;;11.00;99.90;;;;;;5118430;28;20204;-77
2023/06/01 02:28:18;;;;;;;14.37;7.40;;;11.10;99.90;;;;;;5118155;28;20205;-75
2023/06/01 02:30:45;;;;;;;15.03;7.20;;;11.20;99.90;;;;;;5119097;28;20212;-78
2023/06/01 02:33:11;;;;;;;16.33;7.97;;;11.40;99.90;;;;;;5118668;28;20220;-79
2023/06/01 02:35:40;;;;;;;16.43;7.30;;;11.30;99.90;;;;;;5119332;28;20208;-76
2023/06/01 02:38:07;;;;;;;15.17;7.43;;;11.30;99.90;;;;;;5119471;28;20208;-77
2023/06/01 02:40:33;;;;;;;14.20;7.13;;;11.20;99.90;;;;;;5119276;28;20199;-78
2023/06/01 02:43:00;;;;;;;14.90;6.90;;;11.10;99.90;;;;;;5120399;28;20221;-79
2023/06/01 02:45:27;;;;;;;13.63;6.97;;;11.10;99.90;;;;;;5120305;28;20200;-77
2023/06/01 02:47:54;;;;;;;12.73;6.57;;;11.10;99.90;;;;;;5124694;28;20207;-79
2023/06/01 02:50:20;;;;;;;16.17;6.60;;;11.20;99.90;;;;;;5124619;28;20217;-76
2023/06/01 02:52:49;;;;;;;15.43;7.13;;;11.10;99.90;;;;;;5124072;28;20259;-78
2023/06/01 02:55:15;;;;;;;15.03;7.20;;;11.10;99.90;;;;;;5123147;28;20677;-76
2023/06/01 02:57:42;;;;;;;14.97;6.83;;;11.10;99.90;;;;;;5124123;28;20207;-79
2023/06/01 03:00:15;;;;;;;15.40;6.67;;;11.00;99.90;;;;;;5124155;28;20299;-77
2023/06/01 03:02:42;;;;;;;13.50;6.97;;;11.10;99.90;;;;;;5124446;28;20307;-79
2023/06/01 03:05:12;;;;;;;16.43;7.07;;;11.20;99.90;;;;;;5123712;28;20205;-77
2023/06/01 03:07:40;;;;;;;14.40;7.50;;;11.10;99.90;;;;;;5123385;28;20200;-77
2023/06/01 03:10:09;;;;;;;15.63;7.20;;;11.10;99.90;;;;;;5122544;28;20217;-79
2023/06/01 03:12:36;;;;;;;15.03;7.47;;;11.00;99.90;;;;;;5123410;28;20225;-77
2023/06/01 03:15:03;;;;;;;15.00;7.90;;;10.90;99.90;;;;;;5121982;28;20201;-79
2023/06/01 03:17:29;;;;;;;18.87;7.90;;;11.10;99.90;;;;;;5123054;28;20737;-78
2023/06/01 03:19:56;;;;;;;18.33;7.40;;;11.20;99.90;;;;;;5123241;28;20215;-79
2023/06/01 03:22:23;;;;;;;18.07;7.47;;;11.00;99.90;;;;;;5122677;28;20226;-78
2023/06/01 03:24:50;;;;;;;14.37;8.00;;;11.10;99.90;;;;;;5122273;28;20248;-76
2023/06/01 03:27:19;;;;;;;18.03;7.93;;;11.10;99.90;;;;;;5122772;28;20204;-79
2023/06/01 03:29:46;;;;;;;15.80;7.07;;;11.00;99.90;;;;;;5121552;28;20212;-78
2023/06/01 03:32:14;;;;;;;19.43;8.03;;;11.10;99.90;;;;;;5121360;28;20672;-77
2023/06/01 03:34:41;;;;;;;16.67;8.23;;;11.20;99.90;;;;;;5123290;28;20287;-77
2023/06/01 03:37:08;;;;;;;18.00;8.00;;;11.20;99.90;;;;;;5122238;28;20226;-77
2023/06/01 03:39:35;;;;;;;18.27;7.33;;;11.20;99.90;;;;;;5122258;28;20267;-78
2023/06/01 03:42:02;;;;;;;10.60;6.53;;;11.30;99.90;;;;;;5123147;28;20201;-78
2023/06/01 03:44:31;;;;;;;16.47;7.43;;;11.20;99.90;;;;;;5123413;28;20773;-78
2023/06/01 03:46:57;;;;;;;11.60;6.83;;;11.10;99.90;;;;;;5123556;28;20296;-77
2023/06/01 03:49:24;;;;;;;15.20;6.47;;;11.10;99.90;;;;;;5122911;28;20205;-77
2023/06/01 03:51:51;;;;;;;14.70;6.57;;;11.10;99.90;;;;;;5122844;28;20284;-76
2023/06/01 03:54:18;;;;;;;14.33;6.63;;;11.10;99.90;;;;;;5122236;28;20215;-76
2023/06/01 03:56:45;;;;;;;13.33;6.37;;;11.10;99.90;;;;;;5122341;28;20201;-79
2023/06/01 03:59:12;;;;;;;12.50;6.27;;;11.20;99.90;;;;;;5122625;28;20209;-79
2023/06/01 04:01:42;;;;;;;14.80;6.40;;;11.10;99.90;;;;;;5122489;28;20212;-76
2023/06/01 04:04:09;;;;;;;14.27;6.87;;;11.10;99.90;;;;;;5121021;28;20263;-79
2023/06/01 04:06:36;;;;;;;15.13;7.20;;;11.20;99.90;;;;;;5120552;28;20205;-77
2023/06/01 04:09:06;;;;;;;15.23;7.10;;;11.10;99.90;;;;;;5120133;28;20193;-77
2023/06/01 04:11:33;;;;;;;16.70;7.73;;;11.10;99.90;;;;;;5120850;28;20221;-78
2023/06/01 04:14:00;;;;;;;14.63;6.40;;;11.10;99.90;;;;;;5120475;28;20217;-76
2023/06/01 04:16:27;;;;;;;12.77;6.00;;;11.20;99.90;;;;;;5120595;28;20201;-77
2023/06/01 04:18:55;;;;;;;14.23;6.60;;;11.20;99.90;;;;;;5119955;28;20207;-76
2023/06/01 04:21:22;;;;;;;12.80;6.90;;;11.30;99.90;;;;;;5120979;28;20199;-77
2023/06/01 04:23:49;;;;;;;14.67;6.67;;;11.50;99.90;;;;;;5120446;28;20220;-76
2023/06/01 04:26:17;;;;;;;16.23;6.63;;;11.60;99.90;;;;;;5120492;28;20268;-75
2023/06/01 04:28:45;;;;;;;16.67;7.33;;;11.40;99.90;;;;;;5120268;28;20725;-78
2023/06/01 04:31:16;;;;;;;14.07;6.77;;;11.50;99.90;;;;;;5119732;28;20221;-77
2023/06/01 04:33:44;;;;;;;14.77;6.83;;;11.30;99.90;;;;;;5119666;28;20252;-78
2023/06/01 04:36:13;;;;;;;13.33;6.17;;;11.40;99.90;;;;;;5120335;28;20207;-75
2023/06/01 04:38:41;;;;;;;15.93;7.00;;;11.30;99.90;;;;;;5120856;28;20197;-78
2023/06/01 04:41:10;;;;;;;17.07;6.77;;;11.40;99.90;;;;;;5120628;28;20228;-76
2023/06/01 04:43:39;;;;;;;11.67;7.13;;;11.50;99.90;;;;;;5118892;28;20353;-76
2023/06/01 04:46:07;;;;;;;16.43;7.33;;;11.50;99.90;;;;;;5119005;28;20205;-77
2023/06/01 04:48:34;;;;;;;14.67;6.50;;;11.50;99.90;;;;;;5118981;28;20201;-78
2023/06/01 04:51:01;;;;;;;13.20;6.77;;;11.10;99.90;;;;;;5118703;28;20248;-78
2023/06/01 04:53:29;;;;;;;13.97;6.17;;;11.20;99.90;;;;;;5119071;28;20641;-76
2023/06/01 04:55:56;;;;;;;15.60;6.70;;;11.20;99.90;;;;;;5120209;28;20600;-76
2023/06/01 04:58:23;;;;;;;16.23;7.40;;;11.10;99.90;;;;;;5119097;28;20254;-76
2023/06/01 05:00:50;;;;;;;14.93;6.90;;;11.10;99.90;;;;;;5120174;28;20205;-76
2023/06/01 05:03:17;;;;;;;19.20;6.67;;;11.00;99.90;;;;;;5118879;28;20236;-77
2023/06/01 05:05:45;;;;;;;13.67;6.33;;;11.10;99.90;;;;;;5118933;28;20197;-76
2023/06/01 05:08:12;;;;;;;20.77;7.00;;;11.20;99.90;;;;;;5118108;28;20201;-76
2023/06/01 05:10:40;;;;;;;17.63;7.70;;;11.20;99.90;;;;;;5120379;28;20201;-76
2023/06/01 05:13:07;;;;;;;18.50;9.03;;;11.20;99.90;;;;;;5119502;28;20221;-76
2023/06/01 05:15:33;;;;;;;14.33;6.80;;;11.20;99.90;;;;;;5120236;28;20205;-76
2023/06/01 05:18:00;;;;;;;16.40;7.97;;;11.10;99.90;;;;;;5119809;28;20582;-77
2023/06/01 05:20:27;;;;;;;14.83;7.70;;;11.20;99.90;;;;;;5119578;28;20243;-76
2023/06/01 05:22:54;;;;;;;18.10;8.30;;;11.30;99.90;;;;;;5120250;28;20220;-77
2023/06/01 05:25:21;;;;;;;16.90;8.37;;;11.30;99.90;;;;;;5122135;28;20207;-76
2023/06/01 05:27:49;;;;;;;15.17;7.93;;;11.40;99.90;;;;;;5122359;28;20237;-76
2023/06/01 05:30:16;;;;;;;16.07;7.63;;;11.60;99.90;;;;;;5120854;28;20350;-76
2023/06/01 05:32:43;;;;;;;17.67;8.13;;;11.60;99.90;;;;;;5120466;28;20221;-79
2023/06/01 05:35:10;;;;;;;20.10;8.20;;;11.60;99.90;;;;;;5120855;28;20569;-77
2023/06/01 05:37:36;;;;;;;15.23;7.13;;;11.40;99.90;;;;;;5121218;28;20650;-79
2023/06/01 05:40:07;;;;;;;15.97;7.57;;;11.50;99.90;;;;;;5121168;28;20661;-79
2023/06/01 05:42:34;;;;;;;18.50;7.40;;;11.50;99.90;;;;;;5120700;28;20681;-77
2023/06/01 05:45:02;;;;;;;13.70;7.20;;;11.60;99.90;;;;;;5119658;28;20201;-78
2023/06/01 05:47:29;;;;;;;15.87;6.80;;;11.50;99.90;;;;;;5120364;28;20672;-78
2023/06/01 05:49:56;;;;;;;14.57;6.53;;;11.60;99.90;;;;;;5120556;28;20699;-76
2023/06/01 05:52:23;;;;;;;14.37;6.17;;;11.40;99.90;;;;;;5120356;28;20225;-78
2023/06/01 05:54:53;;;;;;;15.67;6.43;;;11.60;99.90;;;;;;5118765;28;20568;-77
2023/06/01 05:57:20;;;;;;;12.47;6.77;;;11.80;99.90;;;;;;5119699;28;20625;-77
2023/06/01 05:59:47;;;;;;;11.87;5.87;;;11.90;99.90;;;;;;5119277;28;20209;-77
2023/06/01 06:02:16;;;;;;;12.97;6.77;;;11.90;99.90;;;;;;5119339;28;20223;-77
2023/06/01 06:04:43;;;;;;;13.70;7.03;;;12.00;99.90;;;;;;5118730;28;20254;-76
2023/06/01 06:07:10;;;;;;;15.43;6.53;;;11.80;99.90;;;;;;5118310;28;20204;-77
2023/06/01 06:09:37;;;;;;;15.90;7.23;;;11.80;99.90;;;;;;5119224;28;20260;-77
2023/06/01 06:12:05;;;;;;;17.27;7.33;;;11.70;99.90;;;;;;5118999;28;20217;-77
2023/06/01 06:14:32;;;;;;;16.97;8.47;;;11.80;99.90;;;;;;5119314;28;20236;-76
2023/06/01 06:16:59;;;;;;;24.20;8.00;;;11.70;99.90;;;;;;5117893;28;20200;-75
2023/06/01 06:19:28;;;;;;;15.67;7.70;;;11.80;99.90;;;;;;5117797;28;20205;-79
2023/06/01 06:21:55;;;;;;;12.37;6.43;;;11.90;99.90;;;;;;5117796;28;20201;-78
2023/06/01 06:24:21;;;;;;;18.77;8.00;;;11.90;99.90;;;;;;5118052;28;20299;-78
2023/06/01 06:26:48;;;;;;;12.70;6.57;;;11.90;99.90;;;;;;5118979;28;20211;-77
2023/06/01 06:29:15;;;;;;;12.87;7.07;;;11.90;99.90;;;;;;5118483;28;20207;-77
2023/06/01 06:31:42;;;;;;;17.10;7.07;;;11.80;99.90;;;;;;5118326;28;20227;-77
2023/06/01 06:34:09;;;;;;;19.70;7.63;;;12.10;99.90;;;;;;5117437;28;20227;-77
2023/06/01 06:36:37;;;;;;;17.53;8.03;;;12.00;99.90;;;;;;5118742;28;20212;-77
2023/06/01 06:39:04;;;;;;;13.37;6.90;;;12.20;99.90;;;;;;5118605;28;20308;-76
2023/06/01 06:41:31;;;;;;;15.77;7.33;;;12.10;99.90;;;;;;5118394;28;20199;-79
2023/06/01 06:43:58;;;;;;;13.30;6.63;;;12.00;99.90;;;;;;5118890;28;20225;-77
2023/06/01 06:46:25;;;;;;;13.53;7.13;;;12.10;99.90;;;;;;5118291;28;20200;-76
2023/06/01 06:48:51;;;;;;;13.17;6.87;;;12.20;99.90;;;;;;5118233;28;20271;-76
2023/06/01 06:51:19;;;;;;;16.03;7.90;;;12.30;99.90;;;;;;5118114;28;20225;-77
2023/06/01 06:53:47;;;;;;;14.67;7.60;;;12.10;99.90;;;;;;5118656;28;20221;-76
2023/06/01 06:56:13;;;;;;;16.27;8.20;;;12.10;99.90;;;;;;5120102;28;20209;-77
2023/06/01 06:58:40;;;;;;;15.77;8.43;;;12.30;99.90;;;;;;5119198;28;20196;-76
2023/06/01 07:01:07;;;;;;;17.67;9.07;;;12.10;99.90;;;;;;5120071;28;20226;-77
2023/06/01 07:03:35;;;;;;;19.73;10.20;;;12.30;99.90;;;;;;5119148;28;20216;-78
2023/06/01 07:06:02;;;;;;;21.27;10.47;;;12.20;99.90;;;;;;5119216;28;20208;-77
2023/06/01 07:08:28;;;;;;;23.83;12.50;;;12.40;99.90;;;;;;5118934;28;20224;-80
2023/06/01 07:10:57;;;;;;;25.83;13.00;;;12.40;99.90;;;;;;5118667;28;20200;-78
2023/06/01 07:13:23;;;;;;;24.63;13.60;;;12.30;99.90;;;;;;5117897;28;20699;-75
2023/06/01 07:15:50;;;;;;;24.83;12.57;;;12.30;99.90;;;;;;5117460;28;20209;-76
2023/06/01 07:18:17;;;;;;;21.93;11.03;;;12.50;99.90;;;;;;5118021;28;20683;-78
2023/06/01 07:20:44;;;;;;;19.03;10.30;;;12.50;99.90;;;;;;5119414;28;20577;-76
2023/06/01 07:23:12;;;;;;;18.50;9.27;;;12.60;99.90;;;;;;5119501;28;20216;-77
2023/06/01 07:25:39;;;;;;;18.10;9.63;;;12.80;99.90;;;;;;5116805;28;20261;-75
2023/06/01 07:28:08;;;;;;;22.53;9.43;;;12.60;99.90;;;;;;5118790;28;20204;-77
2023/06/01 07:30:35;;;;;;;20.43;10.20;;;12.50;99.90;;;;;;5118217;28;20221;-77
2023/06/01 07:33:02;;;;;;;21.43;11.40;;;12.70;99.90;;;;;;5122167;28;20595;-76
2023/06/01 07:35:29;;;;;;;22.43;11.07;;;12.50;99.90;;;;;;5122406;28;20209;-76
2023/06/01 07:37:56;;;;;;;20.23;10.30;;;12.60;99.90;;;;;;5122034;28;20203;-77
2023/06/01 07:40:23;;;;;;;19.83;9.23;;;12.60;99.90;;;;;;5122271;28;20208;-77
2023/06/01 07:42:50;;;;;;;19.87;9.93;;;12.80;99.90;;;;;;5123242;28;20217;-76
2023/06/01 07:45:18;;;;;;;20.23;9.40;;;12.90;99.90;;;;;;5122310;28;20205;-76
2023/06/01 07:47:45;;;;;;;22.27;9.80;;;13.00;99.90;;;;;;5122547;28;20294;-77
2023/06/01 07:50:11;;;;;;;25.70;12.03;;;12.80;99.90;;;;;;5123192;28;20205;-77
2023/06/01 07:52:38;;;;;;;26.20;11.50;;;12.70;99.90;;;;;;5122631;28;20270;-79
2023/06/01 07:55:08;;;;;;;25.30;12.97;;;12.90;99.90;;;;;;5123110;28;20258;-78
2023/06/01 07:57:34;;;;;;;24.57;11.93;;;12.60;99.90;;;;;;5123285;28;20566;-78
2023/06/01 08:00:03;;;;;;;22.03;11.17;;;12.70;99.90;;;;;;5124289;28;20264;-78
2023/06/01 08:02:31;;;;;;;22.37;10.93;;;12.80;99.90;;;;;;5120689;28;20799;-77
2023/06/01 08:04:59;;;;;;;18.87;9.03;;;12.90;99.90;;;;;;5122453;28;20268;-77
2023/06/01 08:07:27;;;;;;;23.33;11.13;;;12.90;99.90;;;;;;5122032;28;20261;-78
2023/06/01 08:09:55;;;;;;;20.87;9.33;;;12.90;99.90;;;;;;5121132;28;20610;-78
2023/06/01 08:12:22;;;;;;;20.67;8.27;;;12.90;99.90;;;;;;5121719;28;20231;-78
2023/06/01 08:14:48;;;;;;;18.17;7.83;;;12.90;99.90;;;;;;5121985;28;20201;-77
2023/06/01 08:17:15;;;;;;;14.93;7.27;;;13.00;99.90;;;;;;5122608;28;20203;-78
2023/06/01 08:19:44;;;;;;;14.13;7.33;;;12.80;99.90;;;;;;5122806;28;20247;-77
2023/06/01 08:22:12;;;;;;;11.90;6.07;;;13.00;99.90;;;;;;5123786;28;20776;-77
2023/06/01 08:24:39;;;;;;;15.00;6.73;;;13.10;99.90;;;;;;5123229;28;20627;-77
2023/06/01 08:27:18;;;;;;;13.60;6.47;;;13.10;99.90;;;;;;5123975;28;20221;-78
2023/06/01 08:29:47;;;;;;;11.30;6.03;;;13.30;99.90;;;;;;5123441;28;20209;-77
2023/06/01 08:32:14;;;;;;;9.23;5.40;;;13.40;99.90;;;;;;5123496;28;20697;-79
2023/06/01 08:34:41;;;;;;;16.47;5.43;;;13.40;99.90;;;;;;5123198;28;20207;-75
2023/06/01 08:37:09;;;;;;;10.07;5.93;;;13.30;99.90;;;;;;5123008;28;20204;-77
2023/06/01 08:39:36;;;;;;;10.27;5.93;;;13.50;99.90;;;;;;5121987;28;20200;-78
2023/06/01 08:42:09;;;;;;;10.10;5.27;;;13.30;99.90;;;;;;5123016;28;20204;-78
2023/06/01 08:44:38;;;;;;;14.50;5.67;;;13.70;99.90;;;;;;5121668;28;20185;-79
2023/06/01 08:47:06;;;;;;;12.63;5.00;;;13.80;99.90;;;;;;5122427;28;20208;-81
2023/06/01 08:49:34;;;;;;;12.57;5.87;;;13.90;99.90;;;;;;5123106;28;20203;-79
2023/06/01 08:52:05;;;;;;;8.80;5.47;;;13.40;99.90;;;;;;5121560;28;20221;-79
2023/06/01 08:54:33;;;;;;;12.53;5.23;;;13.60;99.90;;;;;;5122720;28;20205;-78
2023/06/01 08:57:02;;;;;;;11.93;5.40;;;13.70;99.90;;;;;;5122124;28;20201;-79
2023/06/01 08:59:29;;;;;;;8.90;5.40;;;13.70;99.90;;;;;;5122335;28;20208;-76
2023/06/01 09:01:58;;;;;;;10.97;5.40;;;13.50;99.90;;;;;;5121859;28;20204;-77
2023/06/01 09:04:25;;;;;;;10.53;5.77;;;13.60;99.90;;;;;;5121298;28;20613;-78
2023/06/01 09:06:52;;;;;;;12.03;6.07;;;13.70;99.90;;;;;;5122262;28;20228;-76
2023/06/01 09:09:19;;;;;;;13.27;5.70;;;13.70;99.90;;;;;;5122289;28;20250;-78
2023/06/01 09:11:47;;;;;;;10.00;5.13;;;13.70;99.90;;;;;;5122049;28;20201;-77
2023/06/01 09:14:22;;;;;;;12.30;6.20;;;13.70;99.90;;;;;;5121292;28;20271;-77
2023/06/01 09:16:49;;;;;;;10.37;5.10;;;13.50;99.90;;;;;;5122368;28;20204;-78
2023/06/01 09:19:18;;;;;;;11.67;5.40;;;13.40;99.90;;;;;;5122168;28;20664;-77
2023/06/01 09:21:57;;;;;;;10.30;5.63;;;13.50;99.90;;;;;;5123057;28;20201;-78
2023/06/01 09:24:24;;;;;;;11.57;5.00;;;13.40;99.90;;;;;;5121483;28;20575;-77
2023/06/01 09:26:59;;;;;;;8.73;4.60;;;13.60;99.90;;;;;;5123034;28;20209;-77
2023/06/01 09:29:26;;;;;;;12.03;4.80;;;13.80;99.90;;;;;;5122256;28;20200;-77
2023/06/01 09:31:53;;;;;;;9.77;5.57;;;14.00;99.90;;;;;;5121816;28;20201;-79
2023/06/01 09:34:22;;;;;;;10.27;5.57;;;13.40;99.90;;;;;;5121159;28;20251;-76
2023/06/01 09:36:50;;;;;;;10.13;5.47;;;13.60;99.90;;;;;;5120678;28;20269;-78
2023/06/01 09:39:18;;;;;;;14.07;6.47;;;13.70;99.90;;;;;;5120761;28;20227;-80
2023/06/01 09:41:50;;;;;;;9.63;5.60;;;13.60;99.90;;;;;;5120138;28;20680;-79
2023/06/01 09:44:25;;;;;;;8.83;5.10;;;13.70;99.90;;;;;;5120239;28;20253;-79
2023/06/01 09:46:54;;;;;;;12.20;5.37;;;14.00;99.90;;;;;;5121679;28;20295;-79
2023/06/01 09:49:22;;;;;;;14.13;5.47;;;14.10;99.90;;;;;;5121219;28;20668;-78
2023/06/01 09:51:49;;;;;;;10.07;4.97;;;14.00;99.90;;;;;;5120881;28;20568;-80
2023/06/01 09:54:24;;;;;;;9.00;4.37;;;13.60;99.90;;;;;;5118983;28;20196;-77
2023/06/01 09:56:50;;;;;;;9.80;4.07;;;13.80;99.90;;;;;;5119840;28;20203;-76
2023/06/01 09:59:17;;;;;;;7.43;4.47;;;14.00;99.90;;;;;;5119588;28;20196;-78
2023/06/01 10:01:49;;;;;;;8.30;4.83;;;13.80;99.90;;;;;;5120120;28;20207;-76
2023/06/01 10:04:22;;;;;;;9.73;4.90;;;14.00;99.90;;;;;;5119569;28;20207;-79
2023/06/01 10:06:52;;;;;;;7.43;4.00;;;14.10;99.90;;;;;;5120034;28;20261;-79
2023/06/01 10:09:19;;;;;;;6.73;4.27;;;14.00;99.90;;;;;;5120146;28;20246;-77
2023/06/01 10:11:47;;;;;;;6.13;3.83;;;14.20;99.90;;;;;;5121307;28;20581;-77
2023/06/01 10:14:15;;;;;;;7.93;4.67;;;14.30;99.90;;;;;;5120584;28;20263;-79
2023/06/01 10:16:42;;;;;;;13.67;6.17;;;14.20;99.90;;;;;;5120183;28;20232;-79
2023/06/01 10:19:11;;;;;;;9.50;5.87;;;14.10;99.90;;;;;;5120904;28;20268;-78
2023/06/01 10:21:39;;;;;;;9.37;5.40;;;14.30;99.90;;;;;;5120458;28;20208;-79
2023/06/01 10:24:07;;;;;;;13.40;5.00;;;14.20;99.90;;;;;;5121117;28;20213;-77
2023/06/01 10:26:42;;;;;;;7.93;4.50;;;14.10;99.90;;;;;;5121577;28;20201;-78
2023/06/01 10:29:10;;;;;;;7.43;3.73;;;14.30;99.90;;;;;;5121701;28;20204;-78
2023/06/01 10:31:38;;;;;;;6.27;3.93;;;14.20;99.90;;;;;;5122265;28;20205;-77
2023/06/01 10:34:05;;;;;;;7.38;4.13;;;14.30;99.90;;;;;;5120651;28;20227;-76
2023/06/01 10:37:09;;;;;;;7.83;3.97;;;14.40;99.90;;;;;;5120530;28;20201;-76
2023/06/01 10:39:38;;;;;;;7.00;4.00;;;14.10;99.90;;;;;;5121457;28;20243;-78
2023/06/01 10:42:40;;;;;;;6.20;3.90;;;14.20;99.90;;;;;;5121688;28;20291;-77
2023/06/01 10:45:38;;;;;;;5.17;3.40;;;14.40;99.90;;;;;;5120240;28;20258;-78
2023/06/01 10:48:07;;;;;;;4.22;3.30;;;14.70;99.90;;;;;;5121059;28;20238;-78
2023/06/01 10:50:35;;;;;;;4.53;3.37;;;14.50;99.90;;;;;;5120618;28;20225;-79
2023/06/01 10:53:27;;;;;;;5.85;3.33;;;14.50;99.90;;;;;;5120462;28;20243;-77
2023/06/01 10:56:24;;;;;;;5.30;3.40;;;14.50;99.90;;;;;;5120108;28;20207;-77
2023/06/01 10:59:13;;;;;;;4.50;3.60;;;14.70;99.90;;;;;;5121119;28;20224;-78
2023/06/01 11:01:41;;;;;;;4.00;3.60;;;14.30;99.90;;;;;;5118852;28;20296;-79
2023/06/01 11:04:08;;;;;;;9.17;4.20;;;14.70;99.90;;;;;;5119187;28;20220;-79
2023/06/01 11:06:38;;;;;;;5.60;3.80;;;14.60;99.90;;;;;;5123093;28;20201;-77
2023/06/01 11:09:07;;;;;;;6.85;4.18;;;14.50;99.90;;;;;;5125615;28;20240;-78
2023/06/01 11:12:00;;;;;;;6.67;3.73;;;14.80;99.90;;;;;;5125885;28;20292;-79
2023/06/01 11:14:29;;;;;;;3.42;3.03;;;14.90;99.90;;;;;;5124991;28;20224;-79
2023/06/01 11:17:18;;;;;;;4.32;3.55;;;15.00;99.90;;;;;;5124707;28;20201;-79
2023/06/01 11:19:45;;;;;;;4.87;3.73;;;15.00;99.90;;;;;;5124936;28;20296;-79
2023/06/01 11:22:13;;;;;;;8.10;4.10;;;15.00;99.90;;;;;;5124280;28;20227;-78
2023/06/01 11:24:44;;;;;;;8.60;4.40;;;15.00;99.90;;;;;;5124550;28;20205;-77
2023/06/01 11:27:12;;;;;;;7.65;4.78;;;15.00;99.90;;;;;;5125426;28;20293;-78
2023/06/01 11:29:48;;;;;;;5.97;4.55;;;15.10;99.90;;;;;;5125180;28;20503;-78
2023/06/01 11:32:16;;;;;;;8.20;4.35;;;15.00;99.90;;;;;;5123908;28;20227;-78
2023/06/01 11:34:43;;;;;;;6.23;4.00;;;15.20;99.90;;;;;;5122997;28;20221;-77
2023/06/01 11:37:14;;;;;;;7.32;3.90;;;15.00;99.90;;;;;;5123400;28;20656;-76
2023/06/01 11:39:41;;;;;;;5.55;4.00;;;15.00;99.90;;;;;;5125132;28;20284;-79
2023/06/01 11:42:10;;;;;;;6.20;4.18;;;15.00;99.90;;;;;;5124333;28;20205;-77
2023/06/01 11:44:40;;;;;;;9.13;4.27;;;15.00;99.90;;;;;;5123649;28;20195;-79
2023/06/01 11:47:08;;;;;;;6.68;4.07;;;15.20;99.90;;;;;;5123622;28;20228;-79
2023/06/01 11:49:44;;;;;;;6.97;4.10;;;15.30;99.90;;;;;;5123939;28;20205;-79
2023/06/01 11:52:11;;;;;;;5.00;4.23;;;15.60;99.90;;;;;;5123543;28;20238;-76
2023/06/01 11:54:38;;;;;;;5.05;3.70;;;15.60;99.90;;;;;;5123625;28;20225;-78
2023/06/01 11:57:07;;;;;;;5.95;4.03;;;15.60;99.90;;;;;;5123379;28;20201;-77
2023/06/01 11:59:39;;;;;;;5.72;4.13;;;15.60;99.90;;;;;;5124168;28;20636;-77
2023/06/01 12:02:20;;;;;;;5.88;4.03;;;15.50;99.90;;;;;;5121629;28;20201;-78
2023/06/01 12:04:56;;;;;;;5.63;4.00;;;15.70;99.90;;;;;;5122615;28;20665;-77
2023/06/01 12:07:23;;;;;;;8.25;4.25;;;15.40;99.90;;;;;;5122819;28;20209;-77
2023/06/01 12:09:51;;;;;;;7.00;4.28;;;15.50;99.90;;;;;;5124872;28;20296;-79
2023/06/01 12:12:18;;;;;;;8.65;4.82;;;15.50;99.90;;;;;;5123327;28;20240;-77
2023/06/01 12:14:46;;;;;;;8.00;4.53;;;15.60;99.90;;;;;;5124049;28;20719;-79
2023/06/01 12:17:13;;;;;;;8.07;4.60;;;15.40;99.90;;;;;;5123974;28;20209;-79
2023/06/01 12:19:47;;;;;;;6.00;4.75;;;15.40;99.90;;;;;;5122720;28;20573;-78
2023/06/01 12:22:14;;;;;;;7.60;4.72;;;15.20;99.90;;;;;;5123775;28;20221;-77
2023/06/01 12:24:43;;;;;;;6.38;4.90;;;15.40;99.90;;;;;;5122759;28;20268;-79
2023/06/01 12:27:19;;;;;;;6.35;5.25;;;15.20;99.90;;;;;;5123800;28;20725;-78
2023/06/01 12:29:51;;;;;;;7.40;4.53;;;15.30;99.90;;;;;;5122961;28;20277;-78
2023/06/01 12:32:19;;;;;;;6.97;4.90;;;15.30;99.90;;;;;;5123027;28;20252;-78
2023/06/01 12:35:04;;;;;;;7.35;5.05;;;15.50;99.90;;;;;;5121921;28;20221;-79
2023/06/01 12:37:30;;;;;;;10.57;5.47;;;15.40;99.90;;;;;;5122716;28;20193;-78
2023/06/01 12:39:59;;;;;;;8.35;5.78;;;15.60;99.90;;;;;;5122149;28;20201;-80
2023/06/01 12:42:36;;;;;;;7.82;5.60;;;15.40;99.90;;;;;;5122865;28;20227;-79
2023/06/01 12:45:06;;;;;;;8.35;5.00;;;15.30;99.90;;;;;;5123361;28;20208;-79
2023/06/01 12:47:37;;;;;;;7.72;5.10;;;15.20;99.90;;;;;;5123197;28;20201;-78